Time;durP1;ratioP1;P1;durP2;ratioP2;P2;SDS_P1;SDS_P2;PMS_P1;PMS_P2;Temp;Humidity;BMP_temperature;BMP_pressure;BME280_temperature;BME280_humidity;BME280_pressure;Samples;Min_cycle;Max_cycle;Signal;HPM_P1;HPM_P2
2023/06/22 00:02:26;;;;;;;5.78;3.67;;;29.50;99.90;;;;;;5093671;28;20032;-55
2023/06/22 00:04:52;;;;;;;5.28;4.10;;;29.50;99.90;;;;;;5104064;28;20020;-63
2023/06/22 00:07:19;;;;;;;7.45;3.67;;;29.40;99.90;;;;;;5093764;28;20031;-57
2023/06/22 00:09:45;;;;;;;3.35;2.92;;;29.40;99.90;;;;;;5100504;28;20061;-58
2023/06/22 00:12:12;;;;;;;3.78;3.15;;;29.40;99.90;;;;;;5103846;28;20185;-61
2023/06/22 00:14:38;;;;;;;3.85;2.92;;;29.40;99.90;;;;;;5104116;28;20016;-59
2023/06/22 00:17:05;;;;;;;3.55;3.22;;;29.40;99.90;;;;;;5095843;28;20044;-63
2023/06/22 00:19:32;;;;;;;6.47;3.50;;;29.50;99.90;;;;;;5104466;28;20211;-59
2023/06/22 00:22:00;;;;;;;7.05;3.63;;;29.60;99.90;;;;;;5104661;28;20094;-61
2023/06/22 00:24:26;;;;;;;4.30;3.22;;;29.70;99.90;;;;;;5103934;28;20324;-60
2023/06/22 00:26:52;;;;;;;4.82;3.20;;;29.80;99.90;;;;;;5104292;28;20031;-60
2023/06/22 00:29:19;;;;;;;9.57;3.67;;;29.80;99.90;;;;;;5088359;28;20048;-58
2023/06/22 00:32:03;;;;;;;9.05;3.60;;;29.80;99.90;;;;;;5084205;28;20040;-59
2023/06/22 00:34:29;;;;;;;4.03;3.25;;;29.80;99.90;;;;;;5083955;28;20025;-55
2023/06/22 00:36:56;;;;;;;4.82;3.30;;;29.80;99.90;;;;;;5097188;28;20036;-55
2023/06/22 00:39:24;;;;;;;4.60;3.03;;;29.80;99.90;;;;;;5103872;28;20027;-59
2023/06/22 00:41:50;;;;;;;4.18;2.78;;;30.00;99.90;;;;;;5102649;28;20395;-60
2023/06/22 00:44:17;;;;;;;5.28;3.05;;;30.10;99.90;;;;;;5101069;28;20374;-58
2023/06/22 00:46:43;;;;;;;4.57;2.97;;;30.10;99.90;;;;;;5101365;28;20070;-59
2023/06/22 00:49:13;;;;;;;4.38;3.45;;;30.20;99.90;;;;;;5083682;28;20047;-64
2023/06/22 00:51:47;;;;;;;5.35;3.70;;;30.20;99.90;;;;;;5084848;28;20027;-60
2023/06/22 00:54:14;;;;;;;4.65;3.33;;;30.20;99.90;;;;;;5084388;28;20186;-57
2023/06/22 00:56:42;;;;;;;8.75;3.92;;;30.10;99.90;;;;;;5102756;28;20102;-59
2023/06/22 00:59:13;;;;;;;5.97;3.70;;;30.10;99.90;;;;;;5102129;28;20022;-56
2023/06/22 01:01:41;;;;;;;5.75;3.92;;;30.10;99.90;;;;;;5102252;28;20052;-58
2023/06/22 01:04:11;;;;;;;6.03;4.38;;;30.10;99.90;;;;;;5102538;28;20087;-57
2023/06/22 01:06:48;;;;;;;5.75;3.95;;;30.10;99.90;;;;;;5103067;28;20083;-57
2023/06/22 01:09:22;;;;;;;7.82;4.68;;;30.00;99.90;;;;;;5103657;28;20023;-57
2023/06/22 01:12:10;;;;;;;7.07;4.15;;;30.00;99.90;;;;;;5103620;28;20028;-55
2023/06/22 01:46:36;;;;;;;4.72;3.60;;;29.90;99.90;;;;;;5162921;27;20386;-57
2023/06/22 01:49:06;;;;;;;6.47;3.70;;;29.90;99.90;;;;;;5162872;27;20031;-57
2023/06/22 01:51:33;;;;;;;5.22;3.20;;;29.90;99.90;;;;;;5162880;27;20022;-59
2023/06/22 01:53:59;;;;;;;5.85;3.00;;;29.90;99.90;;;;;;5155675;27;20044;-58
2023/06/22 01:56:27;;;;;;;3.78;3.38;;;29.80;99.90;;;;;;5149234;27;20035;-55
2023/06/22 01:59:10;;;;;;;7.20;3.83;;;29.80;99.90;;;;;;5156695;27;20352;-57
2023/06/22 02:02:03;;;;;;;5.60;3.42;;;29.80;99.90;;;;;;5155652;27;20023;-57
2023/06/22 02:04:42;;;;;;;5.35;3.17;;;29.80;99.90;;;;;;5141600;27;20035;-58
2023/06/22 02:07:17;;;;;;;6.28;3.05;;;29.80;99.90;;;;;;5141946;27;20260;-59
2023/06/22 02:09:47;;;;;;;5.15;3.55;;;29.90;99.90;;;;;;5141971;27;20027;-57
2023/06/22 02:12:17;;;;;;;6.28;3.30;;;29.90;99.90;;;;;;5142209;27;20023;-57
2023/06/22 02:14:46;;;;;;;8.02;3.75;;;29.80;99.90;;;;;;5151053;27;20065;-57
2023/06/22 02:17:13;;;;;;;4.78;3.30;;;29.80;99.90;;;;;;5141590;28;20027;-58
2023/06/22 02:19:42;;;;;;;5.88;3.30;;;29.80;99.90;;;;;;5141841;28;20051;-58
2023/06/22 02:22:09;;;;;;;5.60;2.97;;;29.90;99.90;;;;;;5141629;27;20086;-53
2023/06/22 02:24:36;;;;;;;6.25;3.22;;;29.90;99.90;;;;;;5141887;27;20076;-56
2023/06/22 02:27:03;;;;;;;5.72;3.20;;;29.90;99.90;;;;;;5141100;27;20334;-57
2023/06/22 02:29:29;;;;;;;7.25;3.30;;;29.90;99.90;;;;;;5141779;27;20040;-56
2023/06/22 02:31:56;;;;;;;5.03;3.42;;;29.90;99.90;;;;;;5141316;27;20019;-62
2023/06/22 02:34:22;;;;;;;4.15;2.90;;;29.90;99.90;;;;;;5141157;27;20030;-55
2023/06/22 02:36:52;;;;;;;8.05;3.38;;;29.90;99.90;;;;;;5141338;27;20023;-56
2023/06/22 02:39:25;;;;;;;5.18;3.17;;;29.80;99.90;;;;;;5141343;27;20023;-58
2023/06/22 02:41:53;;;;;;;4.90;3.08;;;29.90;99.90;;;;;;5140868;27;20024;-60
2023/06/22 02:44:20;;;;;;;5.03;2.70;;;29.80;99.90;;;;;;5146929;27;20083;-55
2023/06/22 02:46:48;;;;;;;4.68;2.83;;;29.70;99.90;;;;;;5144798;27;20038;-57
2023/06/22 02:49:14;;;;;;;5.15;2.80;;;29.80;99.90;;;;;;5128425;27;20039;-57
2023/06/22 02:51:45;;;;;;;5.68;2.80;;;29.70;99.90;;;;;;5127247;28;20039;-54
2023/06/22 02:54:12;;;;;;;7.57;2.95;;;29.60;99.90;;;;;;5127382;28;20030;-56
2023/06/22 02:56:40;;;;;;;3.88;3.03;;;29.60;99.90;;;;;;5126995;28;20027;-60
2023/06/22 02:59:07;;;;;;;4.20;3.05;;;29.60;99.90;;;;;;5129667;27;20034;-56
2023/06/22 03:01:39;;;;;;;5.00;2.97;;;29.60;99.90;;;;;;5136166;27;20012;-56
2023/06/22 03:04:07;;;;;;;5.32;3.05;;;29.60;99.90;;;;;;5127129;28;20299;-54
2023/06/22 03:06:34;;;;;;;4.78;2.92;;;29.60;99.90;;;;;;5126934;28;20023;-56
2023/06/22 03:09:03;;;;;;;6.47;2.97;;;29.50;99.90;;;;;;5127078;28;20040;-55
2023/06/22 03:11:34;;;;;;;4.25;2.67;;;29.50;99.90;;;;;;5126662;28;20030;-54
2023/06/22 03:14:03;;;;;;;4.70;3.03;;;29.50;99.90;;;;;;5126993;28;20047;-55
2023/06/22 03:16:29;;;;;;;7.40;2.95;;;29.50;99.90;;;;;;5127072;28;20223;-56
2023/06/22 03:18:56;;;;;;;6.20;3.08;;;29.60;99.90;;;;;;5126708;28;20299;-56
2023/06/22 03:21:23;;;;;;;5.20;3.00;;;29.60;99.90;;;;;;5128564;27;20030;-55
2023/06/22 03:23:50;;;;;;;5.30;3.20;;;29.70;99.90;;;;;;5135897;27;20027;-56
2023/06/22 03:26:20;;;;;;;8.45;3.03;;;29.70;99.90;;;;;;5126524;27;20249;-53
2023/06/22 03:28:46;;;;;;;8.30;2.85;;;29.80;99.90;;;;;;5126608;28;20020;-55
2023/06/22 03:31:13;;;;;;;3.25;2.95;;;29.70;99.90;;;;;;5126629;28;20023;-55
2023/06/22 03:33:40;;;;;;;6.70;2.58;;;29.60;99.90;;;;;;5126386;28;20023;-56
2023/06/22 03:36:06;;;;;;;7.72;2.72;;;29.60;99.90;;;;;;5126420;28;20085;-57
2023/06/22 03:38:33;;;;;;;7.00;2.65;;;29.50;99.90;;;;;;5126460;28;20026;-56
2023/06/22 03:40:59;;;;;;;3.83;2.50;;;29.40;99.90;;;;;;5126269;28;20257;-55
2023/06/22 03:43:27;;;;;;;4.93;2.70;;;29.30;99.90;;;;;;5133055;27;20026;-57
2023/06/22 03:45:53;;;;;;;5.65;2.90;;;29.20;99.90;;;;;;5146730;27;20053;-57
2023/06/22 03:48:20;;;;;;;5.28;2.65;;;29.20;99.90;;;;;;5146859;27;20087;-53
2023/06/22 03:50:46;;;;;;;6.18;2.70;;;29.10;99.90;;;;;;5147028;27;20106;-55
2023/06/22 03:53:13;;;;;;;5.45;2.55;;;29.00;99.90;;;;;;5146749;27;20248;-56
2023/06/22 03:55:50;;;;;;;4.00;2.78;;;29.00;99.90;;;;;;5146740;27;20310;-58
2023/06/22 03:58:18;;;;;;;5.68;3.05;;;29.00;99.90;;;;;;5145652;27;20016;-58
2023/06/22 04:00:50;;;;;;;5.45;2.50;;;28.90;99.90;;;;;;5147133;27;20047;-58
2023/06/22 04:03:20;;;;;;;4.30;2.50;;;28.90;99.90;;;;;;5146451;27;20015;-58
2023/06/22 04:05:47;;;;;;;2.95;2.63;;;28.80;99.90;;;;;;5146297;27;20098;-57
2023/06/22 04:08:14;;;;;;;4.25;2.20;;;28.80;99.90;;;;;;5146471;27;20018;-59
2023/06/22 04:10:41;;;;;;;4.45;2.78;;;28.80;99.90;;;;;;5145726;27;20362;-57
2023/06/22 04:13:07;;;;;;;3.67;2.30;;;28.70;99.90;;;;;;5133328;27;20425;-57
2023/06/22 04:15:34;;;;;;;3.55;2.67;;;28.70;99.90;;;;;;5146620;27;20031;-56
2023/06/22 04:18:00;;;;;;;4.20;2.55;;;28.70;99.90;;;;;;5146174;27;20222;-55
2023/06/22 04:20:27;;;;;;;5.43;2.70;;;28.70;99.90;;;;;;5146630;27;20042;-58
2023/06/22 04:22:56;;;;;;;3.30;2.40;;;28.70;99.90;;;;;;5146182;27;20015;-57
2023/06/22 04:25:23;;;;;;;4.57;2.65;;;28.70;99.90;;;;;;5146455;27;20049;-56
2023/06/22 04:27:49;;;;;;;3.42;2.58;;;28.60;99.90;;;;;;5146086;27;20353;-56
2023/06/22 04:30:16;;;;;;;3.67;2.42;;;28.70;99.90;;;;;;5146404;27;20031;-55
2023/06/22 04:32:44;;;;;;;3.88;2.40;;;28.60;99.90;;;;;;5145882;27;20027;-57
2023/06/22 04:35:11;;;;;;;4.93;2.20;;;28.60;99.90;;;;;;5146101;27;20149;-56
2023/06/22 04:37:39;;;;;;;5.10;2.42;;;28.60;99.90;;;;;;5145914;27;20082;-57
2023/06/22 04:40:06;;;;;;;4.75;1.98;;;28.60;99.90;;;;;;5146058;27;20023;-55
2023/06/22 04:42:35;;;;;;;3.00;1.80;;;28.60;99.90;;;;;;5145828;27;20027;-60
2023/06/22 04:45:02;;;;;;;3.72;1.90;;;28.60;99.90;;;;;;5135182;27;20051;-54
2023/06/22 04:47:28;;;;;;;4.93;2.00;;;28.60;99.90;;;;;;5134079;27;20031;-58
2023/06/22 04:49:55;;;;;;;6.03;2.20;;;28.60;99.90;;;;;;5125290;28;20042;-58
2023/06/22 04:52:21;;;;;;;2.75;1.95;;;28.50;99.90;;;;;;5125072;28;20279;-55
2023/06/22 04:54:48;;;;;;;2.25;1.67;;;28.50;99.90;;;;;;5124825;28;20323;-55
2023/06/22 04:57:15;;;;;;;2.65;1.50;;;28.50;99.90;;;;;;5125087;28;20019;-55
2023/06/22 04:59:41;;;;;;;4.18;1.73;;;28.40;99.90;;;;;;5125133;28;20054;-57
2023/06/22 05:02:11;;;;;;;1.90;1.67;;;28.50;99.90;;;;;;5124970;28;20007;-56
2023/06/22 05:04:41;;;;;;;1.98;1.50;;;28.40;99.90;;;;;;5125074;28;20043;-56
2023/06/22 05:07:07;;;;;;;3.88;1.50;;;28.40;99.90;;;;;;5124971;28;20049;-55
2023/06/22 05:09:34;;;;;;;1.55;1.30;;;28.40;99.90;;;;;;5124771;28;20024;-55
2023/06/22 05:12:02;;;;;;;4.40;1.58;;;28.40;99.90;;;;;;5124785;28;20148;-58
2023/06/22 05:14:30;;;;;;;2.70;1.55;;;28.40;99.90;;;;;;5124834;28;20245;-58
2023/06/22 05:17:03;;;;;;;3.08;1.40;;;28.40;99.90;;;;;;5124839;28;20027;-56
2023/06/22 05:19:33;;;;;;;1.90;1.35;;;28.40;99.90;;;;;;5124828;28;20199;-56
2023/06/22 05:21:59;;;;;;;2.90;1.38;;;28.40;99.90;;;;;;5124894;28;20022;-54
2023/06/22 05:24:26;;;;;;;3.70;1.65;;;28.30;99.90;;;;;;5124630;27;20295;-60
2023/06/22 05:26:52;;;;;;;4.15;1.52;;;28.30;99.90;;;;;;5124556;28;20027;-59
2023/06/22 05:29:19;;;;;;;2.80;1.50;;;28.30;99.90;;;;;;5124772;28;20303;-57
2023/06/22 05:31:45;;;;;;;3.20;1.35;;;28.30;99.90;;;;;;5124324;28;20063;-56
2023/06/22 05:34:12;;;;;;;3.58;1.40;;;28.20;99.90;;;;;;5124477;28;20065;-56
2023/06/22 05:36:38;;;;;;;3.60;1.50;;;28.20;99.90;;;;;;5124425;28;20016;-59
2023/06/22 05:39:15;;;;;;;3.58;1.45;;;28.20;99.90;;;;;;5124425;28;20308;-61
2023/06/22 05:41:45;;;;;;;4.07;1.20;;;28.20;99.90;;;;;;5124386;28;20015;-60
2023/06/22 05:44:12;;;;;;;3.92;1.15;;;28.10;99.90;;;;;;5124320;28;20043;-57
2023/06/22 05:46:49;;;;;;;3.63;0.93;;;28.20;99.90;;;;;;5124243;28;20023;-57
2023/06/22 05:49:16;;;;;;;3.28;1.10;;;28.10;99.90;;;;;;5126555;28;20318;-59
2023/06/22 05:51:43;;;;;;;1.17;1.00;;;28.10;99.90;;;;;;5144713;27;20043;-60
2023/06/22 05:54:09;;;;;;;3.78;0.95;;;28.10;99.90;;;;;;5145116;27;20070;-57
2023/06/22 05:56:36;;;;;;;4.05;0.82;;;28.00;99.90;;;;;;5144851;27;20064;-59
2023/06/22 05:59:02;;;;;;;2.42;0.80;;;28.00;99.90;;;;;;5144800;27;20203;-58
2023/06/22 06:01:30;;;;;;;3.25;0.80;;;28.00;99.90;;;;;;5144923;27;20094;-57
2023/06/22 06:03:57;;;;;;;2.85;1.00;;;28.00;99.90;;;;;;5144827;27;20359;-55
2023/06/22 06:06:28;;;;;;;4.47;0.80;;;28.00;99.90;;;;;;5144677;27;20039;-56
2023/06/22 06:08:55;;;;;;;4.63;0.80;;;28.00;99.90;;;;;;5144753;27;21128;-56
2023/06/22 06:11:22;;;;;;;3.13;0.63;;;28.00;99.90;;;;;;5145041;27;20050;-56
2023/06/22 06:13:48;;;;;;;4.53;0.73;;;28.10;99.90;;;;;;5144521;27;20007;-61
2023/06/22 06:16:15;;;;;;;0.88;0.60;;;28.00;99.90;;;;;;5144899;27;20356;-55
2023/06/22 06:18:41;;;;;;;6.88;1.00;;;28.00;99.90;;;;;;5144645;27;20047;-58
2023/06/22 06:21:08;;;;;;;1.92;0.80;;;28.10;99.90;;;;;;5145466;27;20027;-55
2023/06/22 06:23:34;;;;;;;3.72;0.75;;;28.10;99.90;;;;;;5148542;27;20019;-56
2023/06/22 06:26:01;;;;;;;4.40;0.80;;;28.10;99.90;;;;;;5148748;27;20026;-59
2023/06/22 06:28:27;;;;;;;5.05;1.00;;;28.10;99.90;;;;;;5148465;27;20026;-57
2023/06/22 06:30:54;;;;;;;5.80;0.80;;;28.10;99.90;;;;;;5148905;27;20287;-57
2023/06/22 06:33:20;;;;;;;6.43;1.00;;;28.00;99.90;;;;;;5148548;27;20026;-54
2023/06/22 06:35:47;;;;;;;5.00;1.25;;;28.00;99.90;;;;;;5148136;27;20099;-54
2023/06/22 06:38:13;;;;;;;5.35;0.90;;;28.00;99.90;;;;;;5148123;27;20102;-58
2023/06/22 06:40:40;;;;;;;3.47;0.90;;;28.00;99.90;;;;;;5148710;27;20026;-58
2023/06/22 06:43:07;;;;;;;4.25;1.20;;;28.10;99.90;;;;;;5148220;27;20026;-55
2023/06/22 06:45:34;;;;;;;6.40;1.02;;;28.10;99.90;;;;;;5147911;27;20088;-56
2023/06/22 06:48:01;;;;;;;4.30;1.15;;;28.20;99.90;;;;;;5148059;27;20036;-56
2023/06/22 06:50:28;;;;;;;2.75;0.93;;;28.20;99.90;;;;;;5148472;27;20034;-54
2023/06/22 06:52:56;;;;;;;1.77;0.90;;;28.20;99.90;;;;;;5147821;27;20096;-56
2023/06/22 06:55:25;;;;;;;6.70;1.10;;;28.20;99.90;;;;;;5148304;27;20050;-55
2023/06/22 06:57:52;;;;;;;3.92;1.00;;;28.20;99.90;;;;;;5147909;27;20081;-60
2023/06/22 07:00:19;;;;;;;5.93;1.40;;;28.20;99.90;;;;;;5148123;27;20054;-58
2023/06/22 07:02:48;;;;;;;3.55;1.20;;;28.20;99.90;;;;;;5147751;27;20237;-57
2023/06/22 07:05:14;;;;;;;5.68;1.30;;;28.20;99.90;;;;;;5148114;27;20034;-60
2023/06/22 07:07:44;;;;;;;3.63;1.55;;;28.30;99.90;;;;;;5147554;27;20068;-55
2023/06/22 07:10:11;;;;;;;2.97;1.27;;;28.20;99.90;;;;;;5148017;27;20034;-57
2023/06/22 07:12:37;;;;;;;3.25;1.50;;;28.20;99.90;;;;;;5147632;27;20019;-55
2023/06/22 07:15:07;;;;;;;2.17;1.30;;;28.20;99.90;;;;;;5147628;27;20035;-55
2023/06/22 07:17:35;;;;;;;6.05;1.30;;;28.30;99.90;;;;;;5147450;27;20075;-55
2023/06/22 07:20:07;;;;;;;5.97;1.30;;;28.20;99.90;;;;;;5147443;27;20026;-60
2023/06/22 07:22:34;;;;;;;3.00;1.30;;;28.20;99.90;;;;;;5147405;27;20215;-58
2023/06/22 07:25:01;;;;;;;5.18;1.38;;;28.20;99.90;;;;;;5147636;27;20027;-64
2023/06/22 07:27:27;;;;;;;5.03;1.20;;;28.30;99.90;;;;;;5147269;27;20306;-56
2023/06/22 07:29:55;;;;;;;4.38;1.00;;;28.30;99.90;;;;;;5147472;27;20031;-56
2023/06/22 07:32:21;;;;;;;3.83;1.30;;;28.30;99.90;;;;;;5147058;27;20259;-59
2023/06/22 07:34:48;;;;;;;4.57;1.35;;;28.20;99.90;;;;;;5146909;27;20307;-58
2023/06/22 07:37:14;;;;;;;3.42;1.23;;;28.30;99.90;;;;;;5147155;27;20035;-59
2023/06/22 07:39:42;;;;;;;3.22;1.25;;;28.30;99.90;;;;;;5147430;27;20030;-56
2023/06/22 07:42:09;;;;;;;5.40;1.27;;;28.30;99.90;;;;;;5147176;27;20019;-56
2023/06/22 07:44:35;;;;;;;4.05;1.17;;;28.40;99.90;;;;;;5146878;27;20130;-55
2023/06/22 07:47:02;;;;;;;6.93;1.27;;;28.40;99.90;;;;;;5146895;27;20016;-59
2023/06/22 07:49:29;;;;;;;5.80;1.60;;;28.40;99.90;;;;;;5147181;27;20026;-56
2023/06/22 07:51:55;;;;;;;6.18;1.33;;;28.40;99.90;;;;;;5146741;27;20043;-56
2023/06/22 07:54:22;;;;;;;3.90;1.30;;;28.50;99.90;;;;;;5146948;27;20358;-57
2023/06/22 07:56:48;;;;;;;6.05;1.40;;;28.50;99.90;;;;;;5146764;27;20219;-56
2023/06/22 07:59:15;;;;;;;5.40;1.33;;;28.50;99.90;;;;;;5146629;27;20031;-56
2023/06/22 08:01:42;;;;;;;3.25;1.35;;;28.50;99.90;;;;;;5146651;27;20302;-57
2023/06/22 08:04:09;;;;;;;6.43;1.50;;;28.50;99.90;;;;;;5146722;27;20019;-55
2023/06/22 08:06:35;;;;;;;3.88;1.20;;;28.60;99.90;;;;;;5146406;27;20133;-55
2023/06/22 08:09:02;;;;;;;2.92;1.20;;;28.50;99.90;;;;;;5146535;27;20027;-55
2023/06/22 08:11:28;;;;;;;4.68;1.42;;;28.50;99.90;;;;;;5146513;27;20030;-56
2023/06/22 08:13:55;;;;;;;5.30;1.30;;;28.50;99.90;;;;;;5146189;27;20039;-59
2023/06/22 08:16:22;;;;;;;4.93;1.40;;;28.50;99.90;;;;;;5146305;27;20022;-56
2023/06/22 08:18:48;;;;;;;3.75;1.30;;;28.50;99.90;;;;;;5146335;27;20022;-56
2023/06/22 08:21:15;;;;;;;4.85;1.40;;;28.50;99.90;;;;;;5146352;27;20054;-61
2023/06/22 08:23:41;;;;;;;7.53;1.60;;;28.50;99.90;;;;;;5146131;27;20025;-59
2023/06/22 08:26:08;;;;;;;7.20;1.65;;;28.50;99.90;;;;;;5146196;27;20058;-58
2023/06/22 08:28:34;;;;;;;4.15;1.02;;;28.50;99.90;;;;;;5145948;27;20027;-59
2023/06/22 08:31:02;;;;;;;5.93;1.50;;;28.50;99.90;;;;;;5146032;27;20030;-57
2023/06/22 08:33:30;;;;;;;3.78;1.20;;;28.50;99.90;;;;;;5146108;27;20019;-59
2023/06/22 08:35:58;;;;;;;5.95;1.10;;;28.50;99.90;;;;;;5146117;27;20180;-60
2023/06/22 08:38:24;;;;;;;4.05;1.25;;;28.50;99.90;;;;;;5145930;27;20015;-55
2023/06/22 08:40:51;;;;;;;3.72;1.30;;;28.50;99.90;;;;;;5146436;27;20091;-56
2023/06/22 08:43:17;;;;;;;6.63;1.30;;;28.50;99.90;;;;;;5145489;27;20035;-56
2023/06/22 08:45:44;;;;;;;5.35;1.30;;;28.50;99.90;;;;;;5145480;27;20253;-57
2023/06/22 08:48:10;;;;;;;4.85;1.17;;;28.50;99.90;;;;;;5145953;27;20031;-56
2023/06/22 08:50:37;;;;;;;8.57;1.38;;;28.50;99.90;;;;;;5146045;27;20046;-56
2023/06/22 08:53:03;;;;;;;4.82;1.17;;;28.50;99.90;;;;;;5145639;27;20238;-61
2023/06/22 08:55:29;;;;;;;3.55;0.98;;;28.50;99.90;;;;;;5145992;27;20232;-57
2023/06/22 08:57:56;;;;;;;3.35;1.02;;;28.50;99.90;;;;;;5145406;27;20049;-59
2023/06/22 09:00:22;;;;;;;5.65;1.20;;;28.50;99.90;;;;;;5145866;27;20214;-60
2023/06/22 09:02:49;;;;;;;5.10;1.00;;;28.50;99.90;;;;;;5145532;27;20018;-55
2023/06/22 09:05:16;;;;;;;3.95;0.90;;;28.50;99.90;;;;;;5145466;27;20039;-58
2023/06/22 09:07:43;;;;;;;3.83;1.20;;;28.50;99.90;;;;;;5145366;27;20422;-56
2023/06/22 09:10:09;;;;;;;4.55;1.20;;;28.50;99.90;;;;;;5145783;27;20023;-55
2023/06/22 09:12:37;;;;;;;9.05;1.50;;;28.50;99.90;;;;;;5145328;27;20023;-58
2023/06/22 09:15:06;;;;;;;6.25;1.30;;;28.60;99.90;;;;;;5145474;27;20090;-60
2023/06/22 09:17:34;;;;;;;4.07;1.20;;;28.60;99.90;;;;;;5145531;27;20026;-58
2023/06/22 09:20:01;;;;;;;5.55;1.80;;;28.60;99.90;;;;;;5145506;27;20030;-60
2023/06/22 09:22:29;;;;;;;4.80;3.22;;;28.60;99.90;;;;;;5145202;27;20234;-60
2023/06/22 09:24:56;;;;;;;10.98;5.63;;;28.60;99.90;;;;;;5145660;27;20094;-58
2023/06/22 09:27:22;;;;;;;7.75;6.40;;;28.60;99.90;;;;;;5145187;27;20027;-56
2023/06/22 09:29:50;;;;;;;9.07;5.65;;;28.70;99.90;;;;;;5145230;27;20047;-58
2023/06/22 09:32:16;;;;;;;7.82;4.35;;;28.70;99.90;;;;;;5145180;27;20054;-59
2023/06/22 09:34:43;;;;;;;7.85;3.70;;;28.70;99.90;;;;;;5145142;27;20035;-59
2023/06/22 09:37:09;;;;;;;8.38;3.50;;;28.70;99.90;;;;;;5144918;27;20103;-56
2023/06/22 09:39:36;;;;;;;6.22;2.90;;;28.60;99.90;;;;;;5145297;27;20023;-58
2023/06/22 09:42:05;;;;;;;6.88;3.42;;;28.60;99.90;;;;;;5144974;27;20023;-57
2023/06/22 09:44:31;;;;;;;4.53;2.45;;;28.60;99.90;;;;;;5144782;27;20092;-59
2023/06/22 09:46:58;;;;;;;6.20;2.40;;;28.60;99.90;;;;;;5145071;27;20023;-56
2023/06/22 09:49:24;;;;;;;8.68;2.22;;;28.60;99.90;;;;;;5144968;27;20035;-58
2023/06/22 09:51:52;;;;;;;7.18;2.20;;;28.60;99.90;;;;;;5144783;27;20060;-55
2023/06/22 09:54:18;;;;;;;4.95;2.35;;;28.70;99.90;;;;;;5145010;27;20027;-57
2023/06/22 09:56:45;;;;;;;7.30;2.20;;;28.60;99.90;;;;;;5146913;27;20077;-61
2023/06/22 09:59:11;;;;;;;6.18;1.70;;;28.60;99.90;;;;;;5149029;27;20023;-55
2023/06/22 10:01:38;;;;;;;5.28;2.20;;;28.60;99.90;;;;;;5149054;27;20023;-58
2023/06/22 10:04:04;;;;;;;6.75;2.03;;;28.60;99.90;;;;;;5148965;27;20207;-57
2023/06/22 10:06:31;;;;;;;6.00;2.10;;;28.70;99.90;;;;;;5148772;27;20311;-57
2023/06/22 10:08:57;;;;;;;5.40;2.25;;;28.60;99.90;;;;;;5148926;27;20027;-58
2023/06/22 10:11:28;;;;;;;6.45;1.80;;;28.60;99.90;;;;;;5148787;27;20019;-59
2023/06/22 10:13:55;;;;;;;6.95;2.20;;;28.60;99.90;;;;;;5148588;27;20073;-56
2023/06/22 10:16:22;;;;;;;8.60;3.10;;;28.60;99.90;;;;;;5148799;27;20027;-56
2023/06/22 10:18:48;;;;;;;14.70;4.03;;;28.70;99.90;;;;;;5148611;27;20027;-55
2023/06/22 10:21:15;;;;;;;10.02;3.25;;;28.70;99.90;;;;;;5148478;27;20015;-56
2023/06/22 10:23:42;;;;;;;8.75;2.63;;;28.60;99.90;;;;;;5148731;27;20041;-55
2023/06/22 10:26:08;;;;;;;7.75;2.65;;;28.70;99.90;;;;;;5148504;27;20102;-57
2023/06/22 10:28:34;;;;;;;9.48;2.60;;;28.70;99.90;;;;;;5148281;27;20303;-55
2023/06/22 10:31:01;;;;;;;7.82;2.60;;;28.70;99.90;;;;;;5148499;27;20027;-55
2023/06/22 10:33:27;;;;;;;10.27;2.70;;;28.60;99.90;;;;;;5148355;27;20031;-59
2023/06/22 10:35:54;;;;;;;8.70;3.72;;;28.70;99.90;;;;;;5147936;27;20311;-55
2023/06/22 10:38:20;;;;;;;8.65;3.38;;;28.60;99.90;;;;;;5148351;27;20333;-55
2023/06/22 10:40:47;;;;;;;11.95;3.15;;;28.60;99.90;;;;;;5148700;27;20106;-57
2023/06/22 10:43:13;;;;;;;12.10;2.78;;;28.60;99.90;;;;;;5148058;27;20090;-55
2023/06/22 10:45:40;;;;;;;10.88;2.63;;;28.60;99.90;;;;;;5148097;27;20058;-60
2023/06/22 10:48:06;;;;;;;8.38;2.40;;;28.60;99.90;;;;;;5148299;27;20098;-56
2023/06/22 10:50:33;;;;;;;8.13;2.42;;;28.60;99.90;;;;;;5148327;27;20019;-64
2023/06/22 10:52:59;;;;;;;8.65;2.65;;;28.60;99.90;;;;;;5147338;27;20023;-55
2023/06/22 10:55:26;;;;;;;9.20;2.70;;;28.60;99.90;;;;;;5148263;27;20306;-57
2023/06/22 10:57:52;;;;;;;10.68;2.35;;;28.70;99.90;;;;;;5147872;27;20011;-57
2023/06/22 11:00:19;;;;;;;8.27;2.70;;;28.70;99.90;;;;;;5148227;27;20027;-56
2023/06/22 11:02:45;;;;;;;8.00;2.85;;;28.70;99.90;;;;;;5147813;27;20032;-60
2023/06/22 11:05:12;;;;;;;8.23;2.90;;;28.70;99.90;;;;;;5148082;27;20023;-57
2023/06/22 11:07:42;;;;;;;8.30;3.25;;;28.70;99.90;;;;;;5147405;27;20070;-55
2023/06/22 11:10:09;;;;;;;7.45;3.22;;;28.70;99.90;;;;;;5147996;27;20196;-57
2023/06/22 11:12:35;;;;;;;10.00;3.08;;;28.70;99.90;;;;;;5147553;27;20022;-56
2023/06/22 11:15:02;;;;;;;9.55;3.38;;;28.70;99.90;;;;;;5147708;27;20090;-56
2023/06/22 11:17:28;;;;;;;9.48;2.88;;;28.70;99.90;;;;;;5147530;27;20030;-55
2023/06/22 11:19:55;;;;;;;9.25;3.10;;;28.70;99.90;;;;;;5147741;27;20318;-55
2023/06/22 11:22:21;;;;;;;8.50;2.65;;;28.80;99.90;;;;;;5147369;27;20033;-60
2023/06/22 11:24:48;;;;;;;11.00;3.13;;;28.70;99.90;;;;;;5147609;27;20054;-58
2023/06/22 11:27:15;;;;;;;9.20;3.20;;;28.80;99.90;;;;;;5147291;27;20060;-56
2023/06/22 11:29:42;;;;;;;13.80;3.03;;;28.70;99.90;;;;;;5147444;27;20090;-57
2023/06/22 11:32:08;;;;;;;16.42;3.42;;;28.80;99.90;;;;;;5147264;27;20030;-56
2023/06/22 11:34:35;;;;;;;14.50;3.25;;;28.70;99.90;;;;;;5147325;27;20053;-56
2023/06/22 11:37:02;;;;;;;10.95;4.70;;;28.80;99.90;;;;;;5146952;27;20023;-57
2023/06/22 11:39:29;;;;;;;10.35;3.10;;;28.80;99.90;;;;;;5147213;27;20031;-55
2023/06/22 11:41:55;;;;;;;8.60;2.90;;;28.80;99.90;;;;;;5147066;27;20043;-57
2023/06/22 11:44:22;;;;;;;8.07;3.00;;;28.80;99.90;;;;;;5146789;27;20329;-60
2023/06/22 11:46:48;;;;;;;11.20;3.17;;;28.90;99.90;;;;;;5146933;27;20030;-57
2023/06/22 11:49:14;;;;;;;9.35;3.25;;;29.00;99.90;;;;;;5146976;27;20027;-60
2023/06/22 11:51:45;;;;;;;14.50;3.40;;;28.90;99.90;;;;;;5146800;27;20022;-58
2023/06/22 11:54:12;;;;;;;7.03;3.03;;;28.80;99.90;;;;;;5146820;27;20039;-56
2023/06/22 11:56:38;;;;;;;8.30;2.92;;;29.00;99.90;;;;;;5146752;27;20030;-55
2023/06/22 11:59:05;;;;;;;7.78;3.38;;;29.20;99.90;;;;;;5146711;27;20078;-58
2023/06/22 12:01:33;;;;;;;11.00;3.13;;;29.30;99.90;;;;;;5145861;27;20054;-60
2023/06/22 12:03:59;;;;;;;10.70;2.70;;;29.20;99.90;;;;;;5146625;27;20075;-57
2023/06/22 12:06:26;;;;;;;6.07;2.50;;;29.10;99.90;;;;;;5139805;27;20016;-55
2023/06/22 12:08:55;;;;;;;10.15;2.55;;;29.10;99.90;;;;;;5132229;27;20020;-57
2023/06/22 12:11:22;;;;;;;5.47;1.90;;;29.10;99.90;;;;;;5125921;28;20026;-57
2023/06/22 12:13:48;;;;;;;5.13;1.90;;;29.00;99.90;;;;;;5125747;28;20113;-54
2023/06/22 12:16:15;;;;;;;7.32;1.90;;;28.90;99.90;;;;;;5125665;28;20102;-55
2023/06/22 12:18:41;;;;;;;7.68;1.70;;;28.80;99.90;;;;;;5124916;28;20022;-54
2023/06/22 12:21:08;;;;;;;4.28;1.90;;;28.70;99.90;;;;;;5125546;28;20079;-60
2023/06/22 12:23:34;;;;;;;9.45;2.45;;;28.80;99.90;;;;;;5125562;28;20031;-57
2023/06/22 12:26:01;;;;;;;5.70;2.20;;;28.80;99.90;;;;;;5137038;27;20054;-56
2023/06/22 12:28:27;;;;;;;4.80;2.25;;;28.80;99.90;;;;;;5125400;28;20083;-54
2023/06/22 12:30:54;;;;;;;4.72;1.65;;;28.90;99.90;;;;;;5126007;28;20295;-54
2023/06/22 12:33:20;;;;;;;8.85;2.28;;;28.80;99.90;;;;;;5125461;28;20308;-55
2023/06/22 12:35:49;;;;;;;9.15;2.85;;;28.70;99.90;;;;;;5125721;28;20098;-57
2023/06/22 12:38:15;;;;;;;7.70;2.58;;;28.70;99.90;;;;;;5125260;28;20057;-58
2023/06/22 12:40:42;;;;;;;8.07;2.65;;;28.80;99.90;;;;;;5125737;28;20020;-58
2023/06/22 12:43:08;;;;;;;7.45;2.63;;;28.90;99.90;;;;;;5125587;28;20308;-55
2023/06/22 12:45:35;;;;;;;7.65;2.85;;;28.90;99.90;;;;;;5124975;28;20059;-60
2023/06/22 12:48:01;;;;;;;8.38;2.75;;;29.10;99.90;;;;;;5125221;28;20020;-58
2023/06/22 12:50:28;;;;;;;6.97;2.88;;;29.20;99.90;;;;;;5125697;28;20310;-58
2023/06/22 12:52:54;;;;;;;8.15;3.05;;;29.20;99.90;;;;;;5124676;28;20027;-56
2023/06/22 12:55:21;;;;;;;8.50;2.83;;;29.30;99.90;;;;;;5123909;28;20015;-59
2023/06/22 12:57:47;;;;;;;5.72;2.80;;;29.30;99.90;;;;;;5123956;28;20086;-59
2023/06/22 13:00:14;;;;;;;9.90;3.25;;;29.30;99.90;;;;;;5124095;28;20037;-59
2023/06/22 13:02:42;;;;;;;6.22;2.80;;;29.30;99.90;;;;;;5123968;28;20016;-54
2023/06/22 13:05:09;;;;;;;7.65;3.20;;;29.30;99.90;;;;;;5124842;28;20054;-56
2023/06/22 13:07:35;;;;;;;10.20;3.00;;;29.30;99.90;;;;;;5124669;28;20028;-54
2023/06/22 13:10:02;;;;;;;4.93;2.80;;;29.30;99.90;;;;;;5125092;28;20030;-56
2023/06/22 13:12:28;;;;;;;5.53;2.60;;;29.30;99.90;;;;;;5125087;28;20034;-59
2023/06/22 13:14:55;;;;;;;8.88;3.17;;;29.30;99.90;;;;;;5124718;28;20063;-57
2023/06/22 13:17:22;;;;;;;5.82;2.47;;;29.20;99.90;;;;;;5124717;28;20019;-57
2023/06/22 13:19:48;;;;;;;6.75;2.78;;;29.20;99.90;;;;;;5124296;28;20054;-58